Terminal Aerodrome Forecast
Issued by NWS

Home | Current Version | Previous Version | Text Only | Print | Product List | Glossary On
Versions: 1 2 3 4 5 6 7 8 9 10 11 12 13
056
FTUS45 KTFX 120542
TAFHLN
TAF
KHLN 120542Z 1206/1306 VRB05KT P6SM OVC070
      TEMPO 1211/1214 5SM -RASN SCT035 OVC050
     FM122100 25005KT P6SM BKN070=

USA.gov is the U.S. government's official web portal to all federal, state and local government web resources and services.